Grand Mercury — HOOC — position and weather

sailwx.info

Track history (hours):
 
Tides and Currents Weather Stations Pressure Air Temp Water Temp Dewpoint Dewpoint Depression Visibility Wind Speed Wind Dir Waves Ship Positions

Grand Mercury

Last reported at 2014-Oct-18 20:05 UTC. Time now 2014-Oct-24 18:03 UTC.
Position N 01°11' E 103°40'.

Length 200 m; draft 9 m.

Type: Cargo ship. MMSI: 355649000.

Date/timePositionNaut miles runAvg speedWind from/ knotsBaromVisibWave heightAir tempDewpointWater temp
2014-Oct-18 20:05N 01°11' E 103°40'711.7
2014-Oct-18 19:30N 01°09' E 103°46'910.1
2014-Oct-18 18:33N 01°14' E 103°55'6 4.9
2014-Oct-18 17:19N 01°17' E 103°60'0 0.0
2014-Oct-18 15:28N 01°17' E 103°60'0 0.0
2014-Oct-18 14:07N 01°17' E 103°60'0 0.0
2014-Oct-18 12:16N 01°17' E 103°60'0 0.1
2014-Oct-18 11:31N 01°18' E 103°60'0 0.0
2014-Oct-18 10:31N 01°18' E 103°60'0 0.1
2014-Oct-18 09:22N 01°17' E 103°59'0 0.2
2014-Oct-18 08:31N 01°18' E 103°60'0 0.0
2014-Oct-18 07:10N 01°18' E 103°60'0 0.0
2014-Oct-18 06:31N 01°18' E 103°60'0 0.0
2014-Oct-18 05:07N 01°18' E 103°60'0 0.1
2014-Oct-18 04:19N 01°17' E 103°60'0 0.0
2014-Oct-18 02:10N 01°17' E 103°60'0 0.0
2014-Oct-18 01:04N 01°17' E 103°60'0 0.0
2014-Oct-18 00:10N 01°18' E 103°60'0 0.1
2014-Oct-17 23:13N 01°17' E 103°60'2 3.3
2014-Oct-17 22:32N 01°15' E 103°58'3 3.5
2014-Oct-17 21:33N 01°16' E 104°02'7 7.3
2014-Oct-17 20:32N 01°16' E 104°09'  
2014-Oct-10 06:08N 35°47' E 125°34'  
Track history (hours):
 
Tides and Currents Weather Stations Pressure Air Temp Water Temp Dewpoint Dewpoint Depression Visibility Wind Speed Wind Dir Waves Ship Positions

Grand Mercury

Last reported at 2014-Oct-18 20:05 UTC. Time now 2014-Oct-24 18:03 UTC.
Position N 01°11' E 103°40'.

Length 200 m; draft 9 m.

Type: Cargo ship. MMSI: 355649000.

Date/timePositionNaut miles runAvg speedWind from/ knotsBaromVisibWave heightAir tempDewpointWater temp
2014-Oct-18 20:05N 01°11' E 103°40'711.7
2014-Oct-18 19:30N 01°09' E 103°46'910.1
2014-Oct-18 18:33N 01°14' E 103°55'6 4.9
2014-Oct-18 17:19N 01°17' E 103°60'0 0.0
2014-Oct-18 15:28N 01°17' E 103°60'0 0.0
2014-Oct-18 14:07N 01°17' E 103°60'0 0.0
2014-Oct-18 12:16N 01°17' E 103°60'0 0.1
2014-Oct-18 11:31N 01°18' E 103°60'0 0.0
2014-Oct-18 10:31N 01°18' E 103°60'0 0.1
2014-Oct-18 09:22N 01°17' E 103°59'0 0.2
2014-Oct-18 08:31N 01°18' E 103°60'0 0.0
2014-Oct-18 07:10N 01°18' E 103°60'0 0.0
2014-Oct-18 06:31N 01°18' E 103°60'0 0.0
2014-Oct-18 05:07N 01°18' E 103°60'0 0.1
2014-Oct-18 04:19N 01°17' E 103°60'0 0.0
2014-Oct-18 02:10N 01°17' E 103°60'0 0.0
2014-Oct-18 01:04N 01°17' E 103°60'0 0.0
2014-Oct-18 00:10N 01°18' E 103°60'0 0.1
2014-Oct-17 23:13N 01°17' E 103°60'2 3.3
2014-Oct-17 22:32N 01°15' E 103°58'3 3.5
2014-Oct-17 21:33N 01°16' E 104°02'7 7.3
2014-Oct-17 20:32N 01°16' E 104°09'  
2014-Oct-10 06:08N 35°47' E 125°34'  

Dump ship's entire track history